sensor_id;sensor_type;location;lat;lon;timestamp;P1;durP1;ratioP1;P2;durP2;ratioP2
70545;SDS011;58098;51.680;5.134;2022-08-19T00:02:07;18.87;;;14.27;;
70545;SDS011;58098;51.680;5.134;2022-08-19T00:04:34;19.73;;;13.47;;
70545;SDS011;58098;51.680;5.134;2022-08-19T00:07:03;19.90;;;14.43;;
70545;SDS011;58098;51.680;5.134;2022-08-19T00:09:28;20.73;;;15.10;;
70545;SDS011;58098;51.680;5.134;2022-08-19T00:11:53;20.80;;;14.73;;
70545;SDS011;58098;51.680;5.134;2022-08-19T00:14:20;19.70;;;15.45;;
70545;SDS011;58098;51.680;5.134;2022-08-19T00:16:46;20.17;;;15.30;;
70545;SDS011;58098;51.680;5.134;2022-08-19T00:19:12;21.00;;;15.48;;
70545;SDS011;58098;51.680;5.134;2022-08-19T00:21:38;24.70;;;18.33;;
70545;SDS011;58098;51.680;5.134;2022-08-19T00:24:04;25.75;;;18.67;;
70545;SDS011;58098;51.680;5.134;2022-08-19T00:26:30;26.63;;;18.60;;
70545;SDS011;58098;51.680;5.134;2022-08-19T00:28:55;26.83;;;18.57;;
70545;SDS011;58098;51.680;5.134;2022-08-19T00:31:20;27.23;;;19.00;;
70545;SDS011;58098;51.680;5.134;2022-08-19T00:33:45;26.47;;;19.43;;
70545;SDS011;58098;51.680;5.134;2022-08-19T00:36:11;27.33;;;19.23;;
70545;SDS011;58098;51.680;5.134;2022-08-19T00:38:37;25.07;;;18.83;;
70545;SDS011;58098;51.680;5.134;2022-08-19T00:41:04;29.10;;;20.52;;
70545;SDS011;58098;51.680;5.134;2022-08-19T00:43:29;31.17;;;21.75;;
70545;SDS011;58098;51.680;5.134;2022-08-19T00:45:55;27.43;;;19.83;;
70545;SDS011;58098;51.680;5.134;2022-08-19T00:48:20;28.27;;;19.53;;
70545;SDS011;58098;51.680;5.134;2022-08-19T00:50:46;31.33;;;19.80;;
70545;SDS011;58098;51.680;5.134;2022-08-19T00:53:13;27.20;;;19.83;;
70545;SDS011;58098;51.680;5.134;2022-08-19T00:55:40;29.33;;;20.30;;
70545;SDS011;58098;51.680;5.134;2022-08-19T00:58:08;33.53;;;21.95;;
70545;SDS011;58098;51.680;5.134;2022-08-19T01:00:35;33.33;;;22.90;;
70545;SDS011;58098;51.680;5.134;2022-08-19T01:03:02;31.83;;;22.00;;
70545;SDS011;58098;51.680;5.134;2022-08-19T01:05:27;31.70;;;22.63;;
70545;SDS011;58098;51.680;5.134;2022-08-19T01:07:54;32.53;;;20.88;;
70545;SDS011;58098;51.680;5.134;2022-08-19T01:10:23;34.38;;;22.70;;
70545;SDS011;58098;51.680;5.134;2022-08-19T01:12:49;32.05;;;21.45;;
70545;SDS011;58098;51.680;5.134;2022-08-19T01:15:16;34.45;;;21.58;;
70545;SDS011;58098;51.680;5.134;2022-08-19T01:17:42;29.83;;;21.07;;
70545;SDS011;58098;51.680;5.134;2022-08-19T01:20:17;33.47;;;22.52;;
70545;SDS011;58098;51.680;5.134;2022-08-19T01:25:10;29.20;;;21.50;;
70545;SDS011;58098;51.680;5.134;2022-08-19T01:27:37;33.65;;;21.83;;
70545;SDS011;58098;51.680;5.134;2022-08-19T01:30:04;34.42;;;22.63;;
70545;SDS011;58098;51.680;5.134;2022-08-19T01:32:30;34.83;;;23.10;;
70545;SDS011;58098;51.680;5.134;2022-08-19T01:34:55;31.93;;;23.50;;
70545;SDS011;58098;51.680;5.134;2022-08-19T01:37:20;35.27;;;22.60;;
70545;SDS011;58098;51.680;5.134;2022-08-19T01:39:46;31.80;;;22.10;;
70545;SDS011;58098;51.680;5.134;2022-08-19T01:42:11;34.47;;;22.98;;
70545;SDS011;58098;51.680;5.134;2022-08-19T01:44:38;34.57;;;22.77;;
70545;SDS011;58098;51.680;5.134;2022-08-19T01:47:04;32.15;;;22.80;;
70545;SDS011;58098;51.680;5.134;2022-08-19T01:49:30;33.63;;;22.30;;
70545;SDS011;58098;51.680;5.134;2022-08-19T01:51:55;31.30;;;21.83;;
70545;SDS011;58098;51.680;5.134;2022-08-19T01:54:21;35.57;;;22.33;;
70545;SDS011;58098;51.680;5.134;2022-08-19T01:56:47;32.45;;;21.95;;
70545;SDS011;58098;51.680;5.134;2022-08-19T01:59:14;29.50;;;21.77;;
70545;SDS011;58098;51.680;5.134;2022-08-19T02:01:40;32.00;;;21.38;;
70545;SDS011;58098;51.680;5.134;2022-08-19T02:04:05;36.33;;;22.07;;
70545;SDS011;58098;51.680;5.134;2022-08-19T02:06:31;35.03;;;22.37;;
70545;SDS011;58098;51.680;5.134;2022-08-19T02:08:56;34.03;;;23.10;;
70545;SDS011;58098;51.680;5.134;2022-08-19T02:11:23;32.72;;;22.33;;
70545;SDS011;58098;51.680;5.134;2022-08-19T02:13:51;29.70;;;21.20;;
70545;SDS011;58098;51.680;5.134;2022-08-19T02:16:17;30.58;;;21.58;;
70545;SDS011;58098;51.680;5.134;2022-08-19T02:18:42;33.93;;;22.27;;
70545;SDS011;58098;51.680;5.134;2022-08-19T02:21:08;31.50;;;22.33;;
70545;SDS011;58098;51.680;5.134;2022-08-19T02:23:33;32.80;;;23.23;;
70545;SDS011;58098;51.680;5.134;2022-08-19T02:25:58;35.15;;;23.10;;
70545;SDS011;58098;51.680;5.134;2022-08-19T02:28:23;36.93;;;24.00;;
70545;SDS011;58098;51.680;5.134;2022-08-19T02:30:48;36.15;;;23.75;;
70545;SDS011;58098;51.680;5.134;2022-08-19T02:33:14;36.60;;;24.27;;
70545;SDS011;58098;51.680;5.134;2022-08-19T02:35:43;38.03;;;24.67;;
70545;SDS011;58098;51.680;5.134;2022-08-19T02:38:08;38.30;;;25.13;;
70545;SDS011;58098;51.680;5.134;2022-08-19T02:40:53;36.55;;;23.55;;
70545;SDS011;58098;51.680;5.134;2022-08-19T02:43:19;35.83;;;23.77;;
70545;SDS011;58098;51.680;5.134;2022-08-19T02:45:47;39.10;;;23.70;;
70545;SDS011;58098;51.680;5.134;2022-08-19T02:48:13;38.80;;;23.83;;
70545;SDS011;58098;51.680;5.134;2022-08-19T02:50:39;44.25;;;24.92;;
70545;SDS011;58098;51.680;5.134;2022-08-19T02:53:05;36.23;;;24.40;;
70545;SDS011;58098;51.680;5.134;2022-08-19T02:55:31;36.10;;;24.73;;
70545;SDS011;58098;51.680;5.134;2022-08-19T02:57:56;36.90;;;23.90;;
70545;SDS011;58098;51.680;5.134;2022-08-19T03:00:22;33.00;;;22.17;;
70545;SDS011;58098;51.680;5.134;2022-08-19T03:02:48;37.95;;;23.67;;
70545;SDS011;58098;51.680;5.134;2022-08-19T03:05:13;36.73;;;23.93;;
70545;SDS011;58098;51.680;5.134;2022-08-19T03:07:39;35.87;;;24.00;;
70545;SDS011;58098;51.680;5.134;2022-08-19T03:10:04;44.10;;;25.33;;
70545;SDS011;58098;51.680;5.134;2022-08-19T03:12:29;37.20;;;24.13;;
70545;SDS011;58098;51.680;5.134;2022-08-19T03:14:54;41.20;;;24.77;;
70545;SDS011;58098;51.680;5.134;2022-08-19T03:17:20;36.83;;;24.53;;
70545;SDS011;58098;51.680;5.134;2022-08-19T03:19:45;38.20;;;25.53;;
70545;SDS011;58098;51.680;5.134;2022-08-19T03:22:10;39.63;;;24.77;;
70545;SDS011;58098;51.680;5.134;2022-08-19T03:24:35;42.97;;;25.23;;
70545;SDS011;58098;51.680;5.134;2022-08-19T03:27:01;40.47;;;24.37;;
70545;SDS011;58098;51.680;5.134;2022-08-19T03:29:29;38.22;;;24.30;;
70545;SDS011;58098;51.680;5.134;2022-08-19T03:31:56;43.80;;;27.52;;
70545;SDS011;58098;51.680;5.134;2022-08-19T03:34:23;41.07;;;25.93;;
70545;SDS011;58098;51.680;5.134;2022-08-19T03:36:51;44.70;;;25.65;;
70545;SDS011;58098;51.680;5.134;2022-08-19T03:39:17;47.33;;;27.35;;
70545;SDS011;58098;51.680;5.134;2022-08-19T03:41:43;44.90;;;26.37;;
70545;SDS011;58098;51.680;5.134;2022-08-19T03:44:09;52.03;;;27.40;;
70545;SDS011;58098;51.680;5.134;2022-08-19T03:46:35;57.53;;;30.03;;
70545;SDS011;58098;51.680;5.134;2022-08-19T03:49:01;56.55;;;30.85;;
70545;SDS011;58098;51.680;5.134;2022-08-19T03:51:34;56.78;;;30.45;;
70545;SDS011;58098;51.680;5.134;2022-08-19T03:54:01;62.97;;;32.33;;
70545;SDS011;58098;51.680;5.134;2022-08-19T03:56:27;63.33;;;33.00;;
70545;SDS011;58098;51.680;5.134;2022-08-19T03:58:53;68.57;;;35.50;;
70545;SDS011;58098;51.680;5.134;2022-08-19T04:01:19;74.32;;;36.38;;
70545;SDS011;58098;51.680;5.134;2022-08-19T04:03:44;75.20;;;37.23;;
70545;SDS011;58098;51.680;5.134;2022-08-19T04:06:17;76.03;;;36.65;;
70545;SDS011;58098;51.680;5.134;2022-08-19T04:08:43;76.10;;;36.70;;
70545;SDS011;58098;51.680;5.134;2022-08-19T04:11:09;87.95;;;38.90;;
70545;SDS011;58098;51.680;5.134;2022-08-19T04:13:35;85.22;;;37.75;;
70545;SDS011;58098;51.680;5.134;2022-08-19T04:16:00;80.13;;;37.90;;
70545;SDS011;58098;51.680;5.134;2022-08-19T04:18:25;96.63;;;41.17;;
70545;SDS011;58098;51.680;5.134;2022-08-19T04:20:51;89.73;;;39.07;;
70545;SDS011;58098;51.680;5.134;2022-08-19T04:23:16;90.23;;;40.97;;
70545;SDS011;58098;51.680;5.134;2022-08-19T04:25:42;92.97;;;40.03;;
70545;SDS011;58098;51.680;5.134;2022-08-19T04:28:08;88.35;;;40.33;;
70545;SDS011;58098;51.680;5.134;2022-08-19T04:30:41;92.10;;;41.25;;
70545;SDS011;58098;51.680;5.134;2022-08-19T04:33:07;91.57;;;41.13;;
70545;SDS011;58098;51.680;5.134;2022-08-19T04:35:36;86.83;;;39.53;;
70545;SDS011;58098;51.680;5.134;2022-08-19T04:38:01;93.60;;;41.43;;
70545;SDS011;58098;51.680;5.134;2022-08-19T04:40:26;93.90;;;41.67;;
70545;SDS011;58098;51.680;5.134;2022-08-19T04:43:10;90.63;;;41.05;;
70545;SDS011;58098;51.680;5.134;2022-08-19T04:45:39;95.78;;;43.95;;
70545;SDS011;58098;51.680;5.134;2022-08-19T04:48:05;94.43;;;42.67;;
70545;SDS011;58098;51.680;5.134;2022-08-19T04:50:30;94.35;;;42.15;;
70545;SDS011;58098;51.680;5.134;2022-08-19T04:52:55;93.38;;;42.30;;
70545;SDS011;58098;51.680;5.134;2022-08-19T04:55:21;89.93;;;40.77;;
70545;SDS011;58098;51.680;5.134;2022-08-19T04:57:46;93.37;;;41.97;;
70545;SDS011;58098;51.680;5.134;2022-08-19T05:00:11;97.57;;;44.73;;
70545;SDS011;58098;51.680;5.134;2022-08-19T05:02:37;87.40;;;39.13;;
70545;SDS011;58098;51.680;5.134;2022-08-19T05:05:02;97.50;;;42.47;;
70545;SDS011;58098;51.680;5.134;2022-08-19T05:07:27;98.05;;;43.72;;
70545;SDS011;58098;51.680;5.134;2022-08-19T05:09:54;93.85;;;43.83;;
70545;SDS011;58098;51.680;5.134;2022-08-19T05:12:20;91.53;;;41.60;;
70545;SDS011;58098;51.680;5.134;2022-08-19T05:14:45;90.00;;;40.27;;
70545;SDS011;58098;51.680;5.134;2022-08-19T05:17:13;95.57;;;42.65;;
70545;SDS011;58098;51.680;5.134;2022-08-19T05:19:38;96.72;;;44.45;;
70545;SDS011;58098;51.680;5.134;2022-08-19T05:22:22;93.78;;;41.78;;
70545;SDS011;58098;51.680;5.134;2022-08-19T05:24:59;92.30;;;42.83;;
70545;SDS011;58098;51.680;5.134;2022-08-19T05:27:25;94.17;;;43.80;;
70545;SDS011;58098;51.680;5.134;2022-08-19T05:29:50;93.50;;;43.28;;
70545;SDS011;58098;51.680;5.134;2022-08-19T05:32:16;86.83;;;39.93;;
70545;SDS011;58098;51.680;5.134;2022-08-19T05:34:41;89.90;;;41.77;;
70545;SDS011;58098;51.680;5.134;2022-08-19T05:37:06;88.60;;;42.70;;
70545;SDS011;58098;51.680;5.134;2022-08-19T05:39:32;81.20;;;40.73;;
70545;SDS011;58098;51.680;5.134;2022-08-19T05:42:00;91.93;;;41.95;;
70545;SDS011;58098;51.680;5.134;2022-08-19T05:44:25;90.45;;;43.50;;
70545;SDS011;58098;51.680;5.134;2022-08-19T05:46:51;89.83;;;42.77;;
70545;SDS011;58098;51.680;5.134;2022-08-19T05:49:20;86.90;;;42.10;;
70545;SDS011;58098;51.680;5.134;2022-08-19T05:51:46;84.60;;;40.55;;
70545;SDS011;58098;51.680;5.134;2022-08-19T05:54:11;81.03;;;40.73;;
70545;SDS011;58098;51.680;5.134;2022-08-19T05:56:38;72.32;;;37.72;;
70545;SDS011;58098;51.680;5.134;2022-08-19T05:59:04;79.60;;;39.53;;
70545;SDS011;58098;51.680;5.134;2022-08-19T06:01:34;79.78;;;40.05;;
70545;SDS011;58098;51.680;5.134;2022-08-19T06:04:00;69.30;;;36.08;;
70545;SDS011;58098;51.680;5.134;2022-08-19T06:06:25;71.53;;;36.70;;
70545;SDS011;58098;51.680;5.134;2022-08-19T06:08:50;72.27;;;37.33;;
70545;SDS011;58098;51.680;5.134;2022-08-19T06:13:44;66.93;;;35.05;;
70545;SDS011;58098;51.680;5.134;2022-08-19T06:16:12;74.30;;;34.40;;
70545;SDS011;58098;51.680;5.134;2022-08-19T06:18:37;78.80;;;36.87;;
70545;SDS011;58098;51.680;5.134;2022-08-19T06:21:02;76.23;;;36.13;;
70545;SDS011;58098;51.680;5.134;2022-08-19T06:23:29;71.97;;;34.47;;
70545;SDS011;58098;51.680;5.134;2022-08-19T06:25:54;75.00;;;34.00;;
70545;SDS011;58098;51.680;5.134;2022-08-19T06:28:19;78.13;;;34.73;;
70545;SDS011;58098;51.680;5.134;2022-08-19T06:30:45;78.65;;;34.78;;
70545;SDS011;58098;51.680;5.134;2022-08-19T06:33:10;78.43;;;35.40;;
70545;SDS011;58098;51.680;5.134;2022-08-19T06:35:41;78.00;;;34.73;;
70545;SDS011;58098;51.680;5.134;2022-08-19T06:38:07;80.00;;;34.70;;
70545;SDS011;58098;51.680;5.134;2022-08-19T06:40:33;77.22;;;34.30;;
70545;SDS011;58098;51.680;5.134;2022-08-19T06:42:58;80.20;;;34.80;;
70545;SDS011;58098;51.680;5.134;2022-08-19T06:45:25;62.70;;;29.10;;
70545;SDS011;58098;51.680;5.134;2022-08-19T06:47:51;80.90;;;35.13;;
70545;SDS011;58098;51.680;5.134;2022-08-19T06:50:20;82.50;;;34.55;;
70545;SDS011;58098;51.680;5.134;2022-08-19T06:52:46;65.60;;;30.50;;
70545;SDS011;58098;51.680;5.134;2022-08-19T06:55:12;79.88;;;33.88;;
70545;SDS011;58098;51.680;5.134;2022-08-19T06:57:37;80.07;;;34.97;;
70545;SDS011;58098;51.680;5.134;2022-08-19T07:00:04;71.50;;;31.43;;
70545;SDS011;58098;51.680;5.134;2022-08-19T07:02:29;72.20;;;33.47;;
70545;SDS011;58098;51.680;5.134;2022-08-19T07:04:54;66.73;;;32.57;;
70545;SDS011;58098;51.680;5.134;2022-08-19T07:07:22;80.43;;;35.05;;
70545;SDS011;58098;51.680;5.134;2022-08-19T07:09:48;82.83;;;36.33;;
70545;SDS011;58098;51.680;5.134;2022-08-19T07:12:14;75.75;;;34.10;;
70545;SDS011;58098;51.680;5.134;2022-08-19T07:14:40;73.90;;;33.05;;
70545;SDS011;58098;51.680;5.134;2022-08-19T07:17:07;64.67;;;31.13;;
70545;SDS011;58098;51.680;5.134;2022-08-19T07:19:33;63.92;;;30.55;;
70545;SDS011;58098;51.680;5.134;2022-08-19T07:22:00;68.53;;;32.83;;
70545;SDS011;58098;51.680;5.134;2022-08-19T07:24:26;66.15;;;32.05;;
70545;SDS011;58098;51.680;5.134;2022-08-19T07:26:52;69.13;;;34.83;;
70545;SDS011;58098;51.680;5.134;2022-08-19T07:29:18;68.03;;;31.42;;
70545;SDS011;58098;51.680;5.134;2022-08-19T07:31:44;71.70;;;34.75;;
70545;SDS011;58098;51.680;5.134;2022-08-19T07:34:10;65.73;;;32.13;;
70545;SDS011;58098;51.680;5.134;2022-08-19T07:36:37;71.80;;;33.95;;
70545;SDS011;58098;51.680;5.134;2022-08-19T07:39:06;72.40;;;33.93;;
70545;SDS011;58098;51.680;5.134;2022-08-19T07:41:32;76.28;;;34.25;;
70545;SDS011;58098;51.680;5.134;2022-08-19T07:43:58;66.93;;;33.93;;
70545;SDS011;58098;51.680;5.134;2022-08-19T07:46:26;78.50;;;36.72;;
70545;SDS011;58098;51.680;5.134;2022-08-19T07:48:56;63.10;;;33.40;;
70545;SDS011;58098;51.680;5.134;2022-08-19T07:51:21;74.47;;;35.20;;
70545;SDS011;58098;51.680;5.134;2022-08-19T07:53:46;65.13;;;33.60;;
70545;SDS011;58098;51.680;5.134;2022-08-19T07:56:12;57.10;;;30.27;;
70545;SDS011;58098;51.680;5.134;2022-08-19T07:58:39;73.32;;;35.28;;
70545;SDS011;58098;51.680;5.134;2022-08-19T08:01:05;74.40;;;34.78;;
70545;SDS011;58098;51.680;5.134;2022-08-19T08:03:32;70.97;;;34.70;;
70545;SDS011;58098;51.680;5.134;2022-08-19T08:06:16;60.55;;;31.58;;
70545;SDS011;58098;51.680;5.134;2022-08-19T08:09:00;66.00;;;34.08;;
70545;SDS011;58098;51.680;5.134;2022-08-19T08:11:46;69.82;;;34.47;;
70545;SDS011;58098;51.680;5.134;2022-08-19T08:14:13;67.85;;;33.50;;
70545;SDS011;58098;51.680;5.134;2022-08-19T08:16:40;69.67;;;33.20;;
70545;SDS011;58098;51.680;5.134;2022-08-19T08:19:06;67.82;;;33.88;;
70545;SDS011;58098;51.680;5.134;2022-08-19T08:21:32;64.20;;;33.07;;
70545;SDS011;58098;51.680;5.134;2022-08-19T08:23:58;66.00;;;32.65;;
70545;SDS011;58098;51.680;5.134;2022-08-19T08:26:23;59.07;;;32.77;;
70545;SDS011;58098;51.680;5.134;2022-08-19T08:28:50;61.88;;;32.70;;
70545;SDS011;58098;51.680;5.134;2022-08-19T08:31:15;63.33;;;31.70;;
70545;SDS011;58098;51.680;5.134;2022-08-19T08:33:40;60.33;;;32.50;;
70545;SDS011;58098;51.680;5.134;2022-08-19T08:36:07;57.42;;;30.38;;
70545;SDS011;58098;51.680;5.134;2022-08-19T08:38:32;57.63;;;32.85;;
70545;SDS011;58098;51.680;5.134;2022-08-19T08:41:07;56.73;;;31.20;;
70545;SDS011;58098;51.680;5.134;2022-08-19T08:43:35;59.25;;;32.38;;
70545;SDS011;58098;51.680;5.134;2022-08-19T08:46:14;61.08;;;33.63;;
70545;SDS011;58098;51.680;5.134;2022-08-19T08:51:11;54.75;;;30.73;;
70545;SDS011;58098;51.680;5.134;2022-08-19T08:53:37;61.58;;;33.63;;
70545;SDS011;58098;51.680;5.134;2022-08-19T08:56:03;61.53;;;33.37;;
70545;SDS011;58098;51.680;5.134;2022-08-19T08:58:36;54.35;;;30.58;;
70545;SDS011;58098;51.680;5.134;2022-08-19T09:01:07;63.63;;;32.53;;
70545;SDS011;58098;51.680;5.134;2022-08-19T09:03:33;53.83;;;31.42;;
70545;SDS011;58098;51.680;5.134;2022-08-19T09:06:03;53.93;;;30.90;;
70545;SDS011;58098;51.680;5.134;2022-08-19T09:11:10;48.00;;;27.80;;
70545;SDS011;58098;51.680;5.134;2022-08-19T09:14:02;42.58;;;26.10;;
70545;SDS011;58098;51.680;5.134;2022-08-19T09:16:22;49.07;;;27.13;;
70545;SDS011;58098;51.680;5.134;2022-08-19T09:18:52;43.75;;;24.15;;
70545;SDS011;58098;51.680;5.134;2022-08-19T09:21:19;49.13;;;25.65;;
70545;SDS011;58098;51.680;5.134;2022-08-19T09:23:45;44.33;;;24.58;;
70545;SDS011;58098;51.680;5.134;2022-08-19T09:26:11;43.03;;;23.67;;
70545;SDS011;58098;51.680;5.134;2022-08-19T09:28:38;38.72;;;23.00;;
70545;SDS011;58098;51.680;5.134;2022-08-19T09:31:06;40.28;;;23.13;;
70545;SDS011;58098;51.680;5.134;2022-08-19T09:33:31;35.23;;;21.73;;
70545;SDS011;58098;51.680;5.134;2022-08-19T09:36:03;35.70;;;21.80;;
70545;SDS011;58098;51.680;5.134;2022-08-19T09:38:28;31.93;;;21.17;;
70545;SDS011;58098;51.680;5.134;2022-08-19T09:40:54;35.00;;;21.75;;
70545;SDS011;58098;51.680;5.134;2022-08-19T09:43:19;36.80;;;21.55;;
70545;SDS011;58098;51.680;5.134;2022-08-19T09:45:44;31.70;;;19.67;;
70545;SDS011;58098;51.680;5.134;2022-08-19T09:48:09;28.80;;;18.73;;
70545;SDS011;58098;51.680;5.134;2022-08-19T09:50:34;29.85;;;17.60;;
70545;SDS011;58098;51.680;5.134;2022-08-19T09:53:01;29.23;;;16.67;;
70545;SDS011;58098;51.680;5.134;2022-08-19T09:55:26;27.03;;;18.43;;
70545;SDS011;58098;51.680;5.134;2022-08-19T09:57:53;30.53;;;18.80;;
70545;SDS011;58098;51.680;5.134;2022-08-19T10:00:18;32.90;;;18.92;;
70545;SDS011;58098;51.680;5.134;2022-08-19T10:02:43;34.60;;;20.03;;
70545;SDS011;58098;51.680;5.134;2022-08-19T10:05:08;31.40;;;20.27;;
70545;SDS011;58098;51.680;5.134;2022-08-19T10:07:52;30.05;;;20.25;;
70545;SDS011;58098;51.680;5.134;2022-08-19T10:10:17;34.47;;;21.17;;
70545;SDS011;58098;51.680;5.134;2022-08-19T10:12:43;32.87;;;20.27;;
70545;SDS011;58098;51.680;5.134;2022-08-19T10:15:12;34.38;;;21.52;;
70545;SDS011;58098;51.680;5.134;2022-08-19T10:17:37;30.90;;;19.45;;
70545;SDS011;58098;51.680;5.134;2022-08-19T10:20:03;26.60;;;17.53;;
70545;SDS011;58098;51.680;5.134;2022-08-19T10:22:29;35.00;;;19.53;;
70545;SDS011;58098;51.680;5.134;2022-08-19T10:24:54;31.10;;;18.37;;
70545;SDS011;58098;51.680;5.134;2022-08-19T10:27:19;28.63;;;17.53;;
70545;SDS011;58098;51.680;5.134;2022-08-19T10:29:44;27.60;;;17.73;;
70545;SDS011;58098;51.680;5.134;2022-08-19T10:32:10;28.50;;;17.10;;
70545;SDS011;58098;51.680;5.134;2022-08-19T10:34:37;24.63;;;16.58;;
70545;SDS011;58098;51.680;5.134;2022-08-19T10:37:03;23.80;;;15.30;;
70545;SDS011;58098;51.680;5.134;2022-08-19T10:39:30;20.13;;;13.55;;
70545;SDS011;58098;51.680;5.134;2022-08-19T10:41:56;21.83;;;13.77;;
70545;SDS011;58098;51.680;5.134;2022-08-19T10:44:22;26.37;;;14.07;;
70545;SDS011;58098;51.680;5.134;2022-08-19T10:46:48;19.77;;;12.60;;
70545;SDS011;58098;51.680;5.134;2022-08-19T10:49:13;19.23;;;12.55;;
70545;SDS011;58098;51.680;5.134;2022-08-19T10:51:39;18.10;;;11.40;;
70545;SDS011;58098;51.680;5.134;2022-08-19T10:54:23;19.47;;;12.57;;
70545;SDS011;58098;51.680;5.134;2022-08-19T10:57:08;16.85;;;11.70;;
70545;SDS011;58098;51.680;5.134;2022-08-19T10:59:34;18.23;;;12.73;;
70545;SDS011;58098;51.680;5.134;2022-08-19T11:02:00;19.02;;;11.57;;
70545;SDS011;58098;51.680;5.134;2022-08-19T11:04:26;20.00;;;11.65;;
70545;SDS011;58098;51.680;5.134;2022-08-19T11:07:06;17.55;;;11.57;;
70545;SDS011;58098;51.680;5.134;2022-08-19T11:09:36;18.38;;;12.30;;
70545;SDS011;58098;51.680;5.134;2022-08-19T11:12:02;18.92;;;12.65;;
70545;SDS011;58098;51.680;5.134;2022-08-19T11:14:28;16.10;;;10.27;;
70545;SDS011;58098;51.680;5.134;2022-08-19T11:16:55;17.55;;;11.52;;
70545;SDS011;58098;51.680;5.134;2022-08-19T11:19:21;16.97;;;11.97;;
70545;SDS011;58098;51.680;5.134;2022-08-19T11:21:48;15.83;;;10.40;;
70545;SDS011;58098;51.680;5.134;2022-08-19T11:24:19;21.15;;;12.02;;
70545;SDS011;58098;51.680;5.134;2022-08-19T11:26:45;21.35;;;11.32;;
70545;SDS011;58098;51.680;5.134;2022-08-19T11:29:11;16.95;;;10.82;;
70545;SDS011;58098;51.680;5.134;2022-08-19T11:31:38;14.83;;;10.07;;
70545;SDS011;58098;51.680;5.134;2022-08-19T11:34:05;15.30;;;12.27;;
70545;SDS011;58098;51.680;5.134;2022-08-19T11:36:31;17.52;;;11.68;;
70545;SDS011;58098;51.680;5.134;2022-08-19T11:38:57;19.25;;;13.23;;
70545;SDS011;58098;51.680;5.134;2022-08-19T11:41:23;17.60;;;12.10;;
70545;SDS011;58098;51.680;5.134;2022-08-19T11:43:49;16.33;;;11.45;;
70545;SDS011;58098;51.680;5.134;2022-08-19T11:46:15;17.23;;;12.13;;
70545;SDS011;58098;51.680;5.134;2022-08-19T11:48:41;13.75;;;9.95;;
70545;SDS011;58098;51.680;5.134;2022-08-19T11:51:07;18.20;;;11.82;;
70545;SDS011;58098;51.680;5.134;2022-08-19T11:53:33;16.63;;;10.50;;
70545;SDS011;58098;51.680;5.134;2022-08-19T11:55:59;17.15;;;10.88;;
70545;SDS011;58098;51.680;5.134;2022-08-19T11:58:24;17.13;;;11.90;;
70545;SDS011;58098;51.680;5.134;2022-08-19T12:00:54;19.45;;;13.27;;
70545;SDS011;58098;51.680;5.134;2022-08-19T12:03:19;21.00;;;14.27;;
70545;SDS011;58098;51.680;5.134;2022-08-19T12:05:44;24.27;;;16.17;;
70545;SDS011;58098;51.680;5.134;2022-08-19T12:08:10;24.37;;;16.30;;
70545;SDS011;58098;51.680;5.134;2022-08-19T12:10:37;29.00;;;17.42;;
70545;SDS011;58098;51.680;5.134;2022-08-19T12:13:02;23.53;;;17.40;;
70545;SDS011;58098;51.680;5.134;2022-08-19T12:15:28;26.83;;;17.80;;
70545;SDS011;58098;51.680;5.134;2022-08-19T12:17:54;32.70;;;20.58;;
70545;SDS011;58098;51.680;5.134;2022-08-19T12:20:21;32.47;;;22.80;;
70545;SDS011;58098;51.680;5.134;2022-08-19T12:22:47;40.90;;;25.65;;
70545;SDS011;58098;51.680;5.134;2022-08-19T12:25:13;46.83;;;28.87;;
70545;SDS011;58098;51.680;5.134;2022-08-19T12:27:38;51.17;;;29.97;;
70545;SDS011;58098;51.680;5.134;2022-08-19T12:30:04;49.27;;;31.60;;
70545;SDS011;58098;51.680;5.134;2022-08-19T12:32:30;48.07;;;31.03;;
70545;SDS011;58098;51.680;5.134;2022-08-19T12:34:55;51.13;;;32.23;;
70545;SDS011;58098;51.680;5.134;2022-08-19T12:37:20;48.40;;;32.20;;
70545;SDS011;58098;51.680;5.134;2022-08-19T12:39:45;49.73;;;32.70;;
70545;SDS011;58098;51.680;5.134;2022-08-19T12:42:11;55.17;;;33.77;;
70545;SDS011;58098;51.680;5.134;2022-08-19T12:44:37;48.93;;;31.70;;
70545;SDS011;58098;51.680;5.134;2022-08-19T12:47:03;44.50;;;30.60;;
70545;SDS011;58098;51.680;5.134;2022-08-19T12:49:29;45.85;;;29.25;;
70545;SDS011;58098;51.680;5.134;2022-08-19T12:51:56;41.65;;;27.25;;
70545;SDS011;58098;51.680;5.134;2022-08-19T12:54:22;38.10;;;24.40;;
70545;SDS011;58098;51.680;5.134;2022-08-19T12:56:48;37.40;;;23.85;;
70545;SDS011;58098;51.680;5.134;2022-08-19T12:59:13;36.53;;;23.60;;
70545;SDS011;58098;51.680;5.134;2022-08-19T13:01:40;36.00;;;24.55;;
70545;SDS011;58098;51.680;5.134;2022-08-19T13:04:06;40.50;;;25.98;;
70545;SDS011;58098;51.680;5.134;2022-08-19T13:06:31;34.60;;;23.87;;
70545;SDS011;58098;51.680;5.134;2022-08-19T13:08:57;45.13;;;26.00;;
70545;SDS011;58098;51.680;5.134;2022-08-19T13:11:22;33.23;;;22.43;;
70545;SDS011;58098;51.680;5.134;2022-08-19T13:13:50;34.55;;;21.42;;
70545;SDS011;58098;51.680;5.134;2022-08-19T13:16:16;35.25;;;22.98;;
70545;SDS011;58098;51.680;5.134;2022-08-19T13:18:42;32.87;;;22.03;;
70545;SDS011;58098;51.680;5.134;2022-08-19T13:21:08;39.30;;;21.17;;
70545;SDS011;58098;51.680;5.134;2022-08-19T13:23:34;28.63;;;19.50;;
70545;SDS011;58098;51.680;5.134;2022-08-19T13:26:01;26.02;;;18.63;;
70545;SDS011;58098;51.680;5.134;2022-08-19T13:28:27;26.52;;;18.55;;
70545;SDS011;58098;51.680;5.134;2022-08-19T13:31:14;28.33;;;17.27;;
70545;SDS011;58098;51.680;5.134;2022-08-19T13:33:57;25.92;;;16.77;;
70545;SDS011;58098;51.680;5.134;2022-08-19T13:36:23;24.27;;;16.20;;
70545;SDS011;58098;51.680;5.134;2022-08-19T13:38:48;22.90;;;15.38;;
70545;SDS011;58098;51.680;5.134;2022-08-19T13:41:13;22.77;;;14.93;;
70545;SDS011;58098;51.680;5.134;2022-08-19T13:43:38;21.00;;;14.97;;
70545;SDS011;58098;51.680;5.134;2022-08-19T13:46:07;21.57;;;14.23;;
70545;SDS011;58098;51.680;5.134;2022-08-19T13:48:33;22.88;;;14.93;;
70545;SDS011;58098;51.680;5.134;2022-08-19T13:50:59;21.73;;;14.30;;
70545;SDS011;58098;51.680;5.134;2022-08-19T13:53:24;21.23;;;13.70;;
70545;SDS011;58098;51.680;5.134;2022-08-19T13:55:49;17.63;;;11.90;;
70545;SDS011;58098;51.680;5.134;2022-08-19T13:58:16;15.75;;;11.05;;
70545;SDS011;58098;51.680;5.134;2022-08-19T14:00:43;13.00;;;9.90;;
70545;SDS011;58098;51.680;5.134;2022-08-19T14:03:08;11.43;;;9.13;;
70545;SDS011;58098;51.680;5.134;2022-08-19T14:05:34;12.27;;;8.03;;
70545;SDS011;58098;51.680;5.134;2022-08-19T14:07:59;9.75;;;7.72;;
70545;SDS011;58098;51.680;5.134;2022-08-19T14:10:25;11.03;;;7.63;;
70545;SDS011;58098;51.680;5.134;2022-08-19T14:12:54;11.17;;;7.90;;
70545;SDS011;58098;51.680;5.134;2022-08-19T14:15:20;9.63;;;6.57;;
70545;SDS011;58098;51.680;5.134;2022-08-19T14:17:46;9.70;;;7.05;;
70545;SDS011;58098;51.680;5.134;2022-08-19T14:20:13;7.73;;;6.93;;
70545;SDS011;58098;51.680;5.134;2022-08-19T14:22:40;8.02;;;6.75;;
70545;SDS011;58098;51.680;5.134;2022-08-19T14:25:06;8.77;;;7.27;;
70545;SDS011;58098;51.680;5.134;2022-08-19T14:27:35;8.57;;;6.30;;
70545;SDS011;58098;51.680;5.134;2022-08-19T14:30:01;9.52;;;7.22;;
70545;SDS011;58098;51.680;5.134;2022-08-19T14:32:27;7.45;;;6.53;;